createdAt,value
2019-02-02T00:00:44.483Z,47.87
2019-02-02T00:05:52.230Z,47.75
2019-02-02T00:10:59.275Z,48.34
2019-02-02T00:16:06.345Z,48.37
2019-02-02T00:21:13.745Z,49.05
2019-02-02T00:26:19.856Z,49.34
2019-02-02T00:31:25.701Z,49.54
2019-02-02T00:36:31.717Z,49.62
2019-02-02T00:41:39.176Z,49.88
2019-02-02T00:46:44.795Z,50.67
2019-02-02T00:51:50.654Z,49.25
2019-02-02T00:56:57.312Z,48.91
2019-02-02T01:02:03.341Z,49.82
2019-02-02T01:07:09.381Z,50.50
2019-02-02T01:12:15.621Z,51.00
2019-02-02T01:17:21.239Z,50.96
2019-02-02T01:22:27.419Z,51.21
2019-02-02T01:27:33.380Z,51.04
2019-02-02T01:32:39.564Z,51.97
2019-02-02T01:37:45.653Z,51.88
2019-02-02T01:42:52.103Z,51.55
2019-02-02T01:47:58.330Z,52.91
2019-02-02T01:53:04.706Z,53.03
2019-02-02T01:58:16.813Z,52.35
2019-02-02T02:03:18.283Z,52.91
2019-02-02T02:08:25.166Z,52.05
2019-02-02T02:13:31.087Z,52.71
2019-02-02T02:18:36.700Z,53.18
2019-02-02T02:23:42.560Z,53.04
2019-02-02T02:28:49.054Z,53.62
2019-02-02T02:33:54.669Z,53.50
2019-02-02T02:39:00.446Z,52.99
2019-02-02T02:44:07.670Z,53.70
2019-02-02T02:49:13.381Z,53.72
2019-02-02T02:54:19.414Z,52.91
2019-02-02T02:59:25.727Z,53.56
2019-02-02T03:04:31.422Z,53.35
2019-02-02T03:09:37.278Z,53.58
2019-02-02T03:14:43.049Z,53.64
2019-02-02T03:19:48.833Z,53.35
2019-02-02T03:24:54.671Z,54.55
2019-02-02T03:30:01.379Z,53.93
2019-02-02T03:35:08.916Z,54.56
2019-02-02T03:40:19.449Z,54.56
2019-02-02T03:45:25.872Z,54.38
2019-02-02T03:50:31.448Z,54.96
2019-02-02T03:55:37.146Z,55.25
2019-02-02T04:00:42.878Z,54.50
2019-02-02T04:05:50.105Z,54.77
2019-02-02T04:10:55.862Z,54.53
2019-02-02T04:16:01.485Z,55.21
2019-02-02T04:21:07.670Z,54.54
2019-02-02T04:26:13.896Z,54.90
2019-02-02T04:31:19.581Z,54.33
2019-02-02T04:36:26.441Z,54.59
2019-02-02T04:41:32.143Z,54.58
2019-02-02T04:46:42.723Z,54.43
2019-02-02T04:51:48.342Z,54.15
2019-02-02T04:56:54.371Z,54.33
2019-02-02T05:02:01.754Z,53.91
2019-02-02T05:07:08.183Z,53.71
2019-02-02T05:12:15.740Z,53.65
2019-02-02T05:17:21.760Z,53.94
2019-02-02T05:22:27.581Z,53.74
2019-02-02T05:27:33.858Z,54.04
2019-02-02T05:32:42.414Z,53.65
2019-02-02T05:37:48.422Z,53.71
2019-02-02T05:42:54.243Z,53.79
2019-02-02T05:48:01.121Z,53.34
2019-02-02T05:53:06.684Z,53.46
2019-02-02T05:58:12.544Z,53.37
2019-02-02T06:03:19.577Z,53.67
2019-02-02T06:08:25.591Z,53.74
2019-02-02T06:13:32.001Z,53.21
2019-02-02T06:18:37.934Z,53.50
2019-02-02T06:23:44.073Z,53.64
2019-02-02T06:28:50.710Z,54.09
2019-02-02T06:33:56.461Z,53.84
2019-02-02T06:39:05.022Z,54.18
2019-02-02T06:44:11.048Z,54.82
2019-02-02T06:49:17.079Z,54.04
2019-02-02T06:54:23.365Z,53.99
2019-02-02T06:59:29.339Z,54.86
2019-02-02T07:04:35.107Z,54.86
2019-02-02T07:09:41.292Z,54.75
2019-02-02T07:14:46.982Z,54.16
2019-02-02T07:19:52.618Z,53.95
2019-02-02T07:24:59.731Z,53.97
2019-02-02T07:30:28.366Z,54.11
2019-02-02T07:35:29.243Z,53.79
2019-02-02T07:40:36.879Z,55.05
2019-02-02T07:45:43.016Z,54.37
2019-02-02T07:50:49.502Z,53.76
2019-02-02T07:55:56.907Z,53.91
2019-02-02T08:01:02.758Z,53.85
2019-02-02T08:06:09.582Z,54.32
2019-02-02T08:11:16.058Z,53.79
2019-02-02T08:16:23.482Z,53.68
2019-02-02T08:21:29.250Z,53.75
2019-02-02T08:26:35.916Z,53.88
2019-02-02T08:31:42.997Z,54.39
2019-02-02T08:36:48.924Z,54.12
2019-02-02T08:41:54.989Z,54.21
2019-02-02T08:47:01.193Z,54.78
2019-02-02T08:52:07.396Z,55.01
2019-02-02T08:57:15.215Z,55.05
2019-02-02T09:02:20.944Z,55.21
2019-02-02T09:07:27.327Z,57.86
2019-02-02T09:12:34.206Z,57.93
2019-02-02T09:17:41.232Z,55.68
2019-02-02T09:22:47.975Z,55.51
2019-02-02T09:27:53.973Z,54.92
2019-02-02T09:32:59.780Z,55.50
2019-02-02T09:38:06.058Z,55.00
2019-02-02T09:43:11.989Z,54.87
2019-02-02T09:48:18.433Z,54.69
2019-02-02T09:53:25.673Z,54.99
2019-02-02T09:58:31.830Z,55.26
2019-02-02T10:03:38.484Z,54.51
2019-02-02T10:08:44.184Z,54.42
2019-02-02T10:13:52.175Z,54.38
2019-02-02T10:18:58.246Z,54.52
2019-02-02T10:24:05.796Z,54.38
2019-02-02T10:29:11.878Z,54.62
2019-02-02T10:34:18.344Z,53.98
2019-02-02T10:39:24.552Z,54.36
2019-02-02T10:44:30.493Z,54.11
2019-02-02T10:49:38.160Z,53.43
2019-02-02T10:54:44.342Z,52.61
2019-02-02T10:59:50.293Z,53.45
2019-02-02T11:04:56.436Z,53.92
2019-02-02T11:10:02.543Z,53.59
2019-02-02T11:15:18.370Z,52.98
2019-02-02T11:20:33.023Z,53.19
2019-02-02T11:25:40.392Z,53.54
2019-02-02T11:30:46.709Z,53.91
2019-02-02T11:35:52.552Z,55.50
2019-02-02T11:40:59.343Z,56.45
2019-02-02T11:46:05.403Z,55.78
2019-02-02T11:51:11.130Z,55.00
2019-02-02T11:56:17.424Z,55.04
2019-02-02T12:01:24.858Z,53.65
2019-02-02T12:06:31.337Z,55.40
2019-02-02T12:11:37.157Z,58.51
2019-02-02T12:16:43.810Z,59.69
2019-02-02T12:21:49.615Z,60.11
2019-02-02T12:26:55.349Z,61.34
2019-02-02T12:32:02.370Z,61.72
2019-02-02T12:37:10.061Z,61.53
2019-02-02T12:42:16.649Z,63.37
2019-02-02T12:47:22.942Z,62.75
2019-02-02T12:52:29.800Z,62.90
2019-02-02T12:57:35.987Z,66.68
2019-02-02T13:02:42.019Z,64.33
2019-02-02T13:07:48.178Z,63.24
2019-02-02T13:12:54.838Z,65.86
2019-02-02T13:18:01.005Z,66.39
2019-02-02T13:23:08.201Z,64.19
2019-02-02T13:28:15.292Z,66.86
2019-02-02T13:33:21.296Z,65.61
2019-02-02T13:38:27.058Z,65.19
2019-02-02T13:43:33.119Z,65.95
2019-02-02T13:48:40.393Z,65.95
2019-02-02T13:53:47.471Z,65.20
2019-02-02T13:58:54.062Z,65.64
2019-02-02T14:04:00.919Z,66.78
2019-02-02T14:09:08.193Z,64.96
2019-02-02T14:14:14.080Z,63.81
2019-02-02T14:19:20.666Z,66.07
2019-02-02T14:24:28.234Z,66.21
2019-02-02T14:29:34.013Z,64.17
2019-02-02T14:34:40.671Z,62.10
2019-02-02T14:39:49.288Z,61.08
2019-02-02T14:44:55.272Z,60.66
2019-02-02T14:50:01.613Z,64.70
2019-02-02T14:55:15.614Z,65.64
2019-02-02T15:00:25.782Z,64.33
2019-02-02T15:05:42.618Z,62.30
2019-02-02T15:10:40.258Z,61.83
2019-02-02T15:15:46.006Z,64.31
2019-02-02T15:20:51.732Z,64.96
2019-02-02T15:25:57.726Z,63.21
2019-02-02T15:31:03.880Z,63.15
2019-02-02T15:36:10.734Z,61.62
2019-02-02T15:41:16.738Z,62.48
2019-02-02T15:46:22.481Z,62.83
2019-02-02T15:51:39.810Z,62.87
2019-02-02T15:56:36.241Z,61.79
2019-02-02T16:01:44.415Z,62.28
2019-02-02T16:06:50.477Z,61.41
2019-02-02T16:11:56.434Z,62.07
2019-02-02T16:17:02.704Z,61.73
2019-02-02T16:22:08.809Z,62.88
2019-02-02T16:27:14.374Z,65.57
2019-02-02T16:32:20.690Z,66.10
2019-02-02T16:37:26.460Z,66.56
2019-02-02T16:42:35.830Z,66.70
2019-02-02T16:47:40.495Z,67.15
2019-02-02T16:52:46.730Z,67.54
2019-02-02T16:57:52.964Z,67.78
2019-02-02T17:02:59.522Z,66.14
2019-02-02T17:08:05.223Z,67.09
2019-02-02T17:13:13.974Z,66.68
2019-02-02T17:18:20.160Z,66.79
2019-02-02T17:23:27.118Z,66.42
2019-02-02T17:28:33.382Z,67.60
2019-02-02T17:33:39.934Z,66.89
2019-02-02T17:38:46.399Z,68.24
2019-02-02T17:43:52.768Z,68.83
2019-02-02T17:48:58.742Z,67.40
2019-02-02T17:54:06.490Z,67.10
2019-02-02T17:59:12.214Z,65.91
2019-02-02T18:04:19.080Z,69.48
2019-02-02T18:09:24.839Z,67.94
2019-02-02T18:14:31.595Z,68.29
2019-02-02T18:19:37.582Z,67.70
2019-02-02T18:24:44.242Z,66.64
2019-02-02T18:29:50.727Z,66.47
2019-02-02T18:34:57.036Z,64.34
2019-02-02T18:40:03.979Z,65.58
2019-02-02T18:45:18.916Z,67.64
2019-02-02T18:50:26.268Z,68.22
2019-02-02T18:55:41.671Z,67.61
2019-02-02T19:00:47.659Z,68.05
2019-02-02T19:05:53.581Z,68.09
2019-02-02T19:11:03.495Z,68.47
2019-02-02T19:16:08.612Z,68.21
2019-02-02T19:21:15.418Z,66.99
2019-02-02T19:26:21.772Z,66.89
2019-02-02T19:31:28.650Z,67.18
2019-02-02T19:36:35.990Z,65.93
2019-02-02T19:41:43.916Z,65.44
2019-02-02T19:46:50.582Z,66.77
2019-02-02T19:51:57.048Z,65.12
2019-02-02T19:57:03.449Z,65.22
2019-02-02T20:02:09.730Z,66.01
2019-02-02T20:07:17.176Z,64.62
2019-02-02T20:12:23.544Z,66.52
2019-02-02T20:17:30.835Z,67.20
2019-02-02T20:22:38.453Z,68.05
2019-02-02T20:27:46.007Z,67.31
2019-02-02T20:32:52.447Z,69.75
2019-02-02T20:37:58.955Z,69.05
2019-02-02T20:43:05.134Z,68.29
2019-02-02T20:48:12.464Z,68.00
2019-02-02T20:53:18.775Z,68.15
2019-02-02T20:58:25.221Z,70.60
2019-02-02T21:03:31.431Z,70.22
2019-02-02T21:08:38.400Z,68.30
2019-02-02T21:13:46.832Z,69.14
2019-02-02T21:18:52.816Z,70.37
2019-02-02T21:23:58.577Z,70.22
2019-02-02T21:29:05.412Z,70.57
2019-02-02T21:34:12.288Z,68.95
2019-02-02T21:39:19.409Z,70.96
2019-02-02T21:44:25.646Z,70.20
2019-02-02T21:49:34.533Z,70.92
2019-02-02T21:54:41.796Z,70.83
2019-02-02T21:59:48.607Z,70.16
2019-02-02T22:04:54.625Z,68.93
2019-02-02T22:10:01.791Z,68.47
2019-02-02T22:15:17.389Z,71.30
2019-02-02T22:20:23.148Z,69.06
2019-02-02T22:25:34.125Z,68.97
2019-02-02T22:30:40.144Z,66.29
2019-02-02T22:35:47.671Z,66.06
2019-02-02T22:40:53.775Z,66.82
2019-02-02T22:45:59.947Z,68.85
2019-02-02T22:51:07.554Z,67.94
2019-02-02T22:56:13.853Z,68.53
2019-02-02T23:01:23.893Z,68.71
2019-02-02T23:06:46.088Z,69.33
2019-02-02T23:12:12.702Z,69.94
2019-02-02T23:17:20.382Z,72.38
2019-02-02T23:22:28.371Z,71.90
2019-02-02T23:27:34.764Z,72.23
2019-02-02T23:32:41.845Z,70.93
2019-02-02T23:37:49.279Z,69.59
2019-02-02T23:42:55.537Z,70.83
2019-02-02T23:48:02.608Z,71.40
2019-02-02T23:53:10.856Z,69.91
2019-02-02T23:58:17.625Z,69.38
